Time;durP1;ratioP1;P1;durP2;ratioP2;P2;SDS_P1;SDS_P2;PMS_P1;PMS_P2;Temp;Humidity;BMP_temperature;BMP_pressure;BME280_temperature;BME280_humidity;BME280_pressure;Samples;Min_cycle;Max_cycle;Signal;HPM_P1;HPM_P2
2024/04/23 00:00:11;;;;;;;;;;;18.00;67.30;;;;;;5391654;26;1738;-72
2024/04/23 00:02:36;;;;;;;;;;;18.00;67.30;;;;;;5401010;26;1411;-72
2024/04/23 00:05:02;;;;;;;;;;;17.90;67.30;;;;;;5396491;26;1852;-71
2024/04/23 00:07:27;;;;;;;;;;;17.90;67.30;;;;;;5417775;26;1922;-71
2024/04/23 00:09:53;;;;;;;;;;;18.00;67.40;;;;;;5394826;26;1874;-71
2024/04/23 00:12:18;;;;;;;;;;;17.90;67.30;;;;;;5394931;26;1530;-72
2024/04/23 00:14:44;;;;;;;;;;;17.90;67.30;;;;;;5392762;26;1290;-72
2024/04/23 00:17:09;;;;;;;;;;;17.90;67.30;;;;;;5361489;26;2505;-72
2024/04/23 00:19:34;;;;;;;;;;;17.90;67.30;;;;;;5398094;26;1235;-72
2024/04/23 00:22:00;;;;;;;;;;;17.90;67.30;;;;;;5396258;26;1623;-73
2024/04/23 00:24:25;;;;;;;;;;;18.00;67.40;;;;;;5402251;26;1378;-72
2024/04/23 00:26:54;;;;;;;;;;;17.90;67.30;;;;;;5396092;26;1821;-72
2024/04/23 00:29:20;;;;;;;;;;;17.90;67.30;;;;;;5422576;26;1755;-73
2024/04/23 00:31:45;;;;;;;;;;;18.00;67.30;;;;;;5394703;26;1870;-72
2024/04/23 00:34:11;;;;;;;;;;;17.90;67.30;;;;;;5392944;26;1349;-72
2024/04/23 00:36:36;;;;;;;;;;;17.90;67.30;;;;;;5397485;26;1371;-72
2024/04/23 00:39:02;;;;;;;;;;;17.90;67.30;;;;;;5398747;26;1017;-72
2024/04/23 00:41:28;;;;;;;;;;;17.90;67.30;;;;;;5398404;26;1245;-72
2024/04/23 00:43:54;;;;;;;;;;;17.90;67.30;;;;;;5394275;26;1899;-72
2024/04/23 00:46:19;;;;;;;;;;;18.00;67.40;;;;;;5396845;26;1817;-71
2024/04/23 00:48:45;;;;;;;;;;;18.00;67.30;;;;;;5361631;26;1573;-70
2024/04/23 00:51:10;;;;;;;;;;;18.00;67.40;;;;;;5397301;26;1462;-72
2024/04/23 00:53:36;;;;;;;;;;;18.00;67.40;;;;;;5418116;26;1440;-72
2024/04/23 00:56:01;;;;;;;;;;;17.90;67.30;;;;;;5424883;26;1633;-71
2024/04/23 00:58:26;;;;;;;;;;;17.90;67.30;;;;;;5398143;26;1417;-71
2024/04/23 01:00:52;;;;;;;;;;;17.90;67.30;;;;;;5339899;26;1778;-71
2024/04/23 01:03:17;;;;;;;;;;;17.90;67.30;;;;;;5398000;26;1988;-71
2024/04/23 01:05:43;;;;;;;;;;;18.00;67.30;;;;;;5393050;26;2055;-71
2024/04/23 01:08:08;;;;;;;;;;;17.90;67.30;;;;;;5421925;26;2086;-71
2024/04/23 01:10:34;;;;;;;;;;;17.90;67.30;;;;;;5394300;26;1449;-71
2024/04/23 01:12:59;;;;;;;;;;;18.00;67.30;;;;;;5361492;26;1840;-73
2024/04/23 01:15:25;;;;;;;;;;;17.90;67.30;;;;;;5364426;26;1753;-70
2024/04/23 01:17:51;;;;;;;;;;;18.00;67.40;;;;;;5395563;26;1762;-70
2024/04/23 01:20:17;;;;;;;;;;;17.90;67.30;;;;;;5359184;26;1941;-71
2024/04/23 01:23:01;;;;;;;;;;;17.90;67.30;;;;;;5391560;26;1412;-72
2024/04/23 01:25:26;;;;;;;;;;;17.90;67.30;;;;;;5404057;26;1540;-72
2024/04/23 01:27:52;;;;;;;;;;;18.00;67.40;;;;;;5395937;26;2657;-71
2024/04/23 01:30:17;;;;;;;;;;;17.90;67.30;;;;;;5421587;26;1651;-72
2024/04/23 01:32:43;;;;;;;;;;;17.90;67.30;;;;;;5384266;26;2059;-74
2024/04/23 01:35:08;;;;;;;;;;;17.90;67.30;;;;;;5389730;26;1955;-72
2024/04/23 01:37:34;;;;;;;;;;;17.90;67.30;;;;;;5361069;26;1857;-72
2024/04/23 01:39:59;;;;;;;;;;;17.90;67.30;;;;;;5359460;26;1948;-72
2024/04/23 01:42:25;;;;;;;;;;;17.90;67.30;;;;;;5363354;26;1807;-72
2024/04/23 01:44:50;;;;;;;;;;;17.90;67.30;;;;;;5419875;26;1631;-72
2024/04/23 01:47:16;;;;;;;;;;;17.90;67.30;;;;;;5417794;26;1861;-73
2024/04/23 01:49:41;;;;;;;;;;;17.90;67.30;;;;;;5393746;26;1860;-72
2024/04/23 01:52:07;;;;;;;;;;;17.90;67.30;;;;;;5357053;26;1882;-73
2024/04/23 01:54:32;;;;;;;;;;;17.90;67.30;;;;;;5362036;26;1834;-71
2024/04/23 01:56:59;;;;;;;;;;;17.90;67.30;;;;;;5395953;26;1654;-74
2024/04/23 01:59:25;;;;;;;;;;;17.90;67.30;;;;;;5360689;26;1513;-74
2024/04/23 02:01:51;;;;;;;;;;;17.90;67.40;;;;;;5396062;26;1876;-73
2024/04/23 02:04:16;;;;;;;;;;;17.90;67.40;;;;;;5391386;26;1576;-73
2024/04/23 02:06:42;;;;;;;;;;;17.90;67.30;;;;;;5396185;26;1829;-73
2024/04/23 02:09:08;;;;;;;;;;;18.00;67.40;;;;;;5360630;26;1683;-73
2024/04/23 02:11:34;;;;;;;;;;;17.90;67.30;;;;;;5418082;26;1797;-73
2024/04/23 02:13:59;;;;;;;;;;;18.00;67.40;;;;;;5377322;26;1795;-72
2024/04/23 02:16:25;;;;;;;;;;;17.90;67.30;;;;;;5367043;26;1842;-74
2024/04/23 02:18:50;;;;;;;;;;;17.90;67.30;;;;;;5420811;26;1771;-72
2024/04/23 02:21:15;;;;;;;;;;;17.90;67.30;;;;;;5371988;26;1543;-71
2024/04/23 02:23:41;;;;;;;;;;;17.90;67.30;;;;;;5392440;26;1770;-70
2024/04/23 02:26:06;;;;;;;;;;;17.90;67.30;;;;;;5393749;26;1876;-71
2024/04/23 02:28:32;;;;;;;;;;;17.90;67.30;;;;;;5427439;26;1515;-71
2024/04/23 02:30:57;;;;;;;;;;;17.90;67.30;;;;;;5393580;26;1760;-70
2024/04/23 02:33:23;;;;;;;;;;;17.90;67.30;;;;;;5394235;26;1729;-73
2024/04/23 02:35:48;;;;;;;;;;;17.90;67.30;;;;;;5365263;26;1739;-73
2024/04/23 02:38:14;;;;;;;;;;;17.90;67.30;;;;;;5396044;26;1985;-73
2024/04/23 02:40:39;;;;;;;;;;;17.90;67.30;;;;;;5395199;26;1927;-74
2024/04/23 02:43:05;;;;;;;;;;;17.90;67.30;;;;;;5390527;26;1957;-72
2024/04/23 02:45:30;;;;;;;;;;;17.90;67.30;;;;;;5395878;26;1899;-72
2024/04/23 02:47:56;;;;;;;;;;;17.90;67.30;;;;;;5391578;26;2158;-73
2024/04/23 02:50:21;;;;;;;;;;;17.90;67.30;;;;;;5376677;26;2036;-73
2024/04/23 02:52:47;;;;;;;;;;;17.90;67.30;;;;;;5394867;26;1856;-71
2024/04/23 02:55:12;;;;;;;;;;;17.90;67.30;;;;;;5369250;26;1870;-72
2024/04/23 02:57:38;;;;;;;;;;;17.90;67.30;;;;;;5379669;26;1549;-72
2024/04/23 03:00:04;;;;;;;;;;;17.90;67.30;;;;;;5426807;26;1823;-72
2024/04/23 03:02:29;;;;;;;;;;;17.90;67.30;;;;;;5397015;26;1265;-72
2024/04/23 03:04:55;;;;;;;;;;;17.90;67.30;;;;;;5374560;26;1675;-72
2024/04/23 03:07:20;;;;;;;;;;;17.90;67.30;;;;;;5366342;26;1829;-72
2024/04/23 03:09:46;;;;;;;;;;;17.90;67.40;;;;;;5365486;26;1552;-72
2024/04/23 03:12:11;;;;;;;;;;;17.90;67.30;;;;;;5367047;26;1414;-72
2024/04/23 03:14:37;;;;;;;;;;;17.90;67.40;;;;;;5396403;26;1267;-72
2024/04/23 03:17:02;;;;;;;;;;;17.90;67.30;;;;;;5395363;26;1460;-72
2024/04/23 03:19:27;;;;;;;;;;;17.90;67.30;;;;;;5363628;26;1026;-72
2024/04/23 03:21:53;;;;;;;;;;;17.90;67.40;;;;;;5364104;26;1133;-71
2024/04/23 03:24:19;;;;;;;;;;;17.90;67.40;;;;;;5368320;26;1287;-72
2024/04/23 03:26:44;;;;;;;;;;;17.90;67.40;;;;;;5419910;26;1876;-72
2024/04/23 03:29:10;;;;;;;;;;;17.90;67.40;;;;;;5403972;26;1619;-72
2024/04/23 03:31:35;;;;;;;;;;;17.90;67.40;;;;;;5404397;26;1759;-72
2024/04/23 03:34:01;;;;;;;;;;;17.90;67.40;;;;;;5366834;26;1563;-72
2024/04/23 03:36:26;;;;;;;;;;;17.90;67.40;;;;;;5396579;26;1398;-72
2024/04/23 03:38:52;;;;;;;;;;;17.90;67.40;;;;;;5424956;26;1908;-72
2024/04/23 03:41:17;;;;;;;;;;;17.90;67.40;;;;;;5362107;26;1597;-72
2024/04/23 03:43:43;;;;;;;;;;;17.90;67.30;;;;;;5396191;26;1421;-72
2024/04/23 03:46:08;;;;;;;;;;;17.90;67.40;;;;;;5369518;26;1876;-72
2024/04/23 03:48:34;;;;;;;;;;;17.90;67.40;;;;;;5342981;26;1619;-72
2024/04/23 03:50:59;;;;;;;;;;;17.90;67.40;;;;;;5359074;26;1522;-72
2024/04/23 03:53:25;;;;;;;;;;;17.90;67.40;;;;;;5395531;26;1519;-72
2024/04/23 03:55:50;;;;;;;;;;;17.90;67.40;;;;;;5419999;26;1431;-72
2024/04/23 03:58:16;;;;;;;;;;;17.90;67.40;;;;;;5375623;26;1425;-72
2024/04/23 04:00:41;;;;;;;;;;;17.90;67.40;;;;;;5380682;26;1613;-72
2024/04/23 04:06:06;;;;;;;;;;;17.90;67.40;;;;;;5393294;26;1821;-72
2024/04/23 04:08:35;;;;;;;;;;;17.90;67.40;;;;;;5396142;26;1641;-72
2024/04/23 04:11:01;;;;;;;;;;;17.90;67.40;;;;;;5426414;26;1861;-72
2024/04/23 04:13:26;;;;;;;;;;;17.90;67.40;;;;;;5366204;26;1860;-72
2024/04/23 04:15:52;;;;;;;;;;;17.90;67.30;;;;;;5392870;26;1904;-72
2024/04/23 04:18:18;;;;;;;;;;;18.00;67.30;;;;;;5394482;26;1877;-72
2024/04/23 04:20:43;;;;;;;;;;;17.90;67.30;;;;;;5424644;26;2027;-72
2024/04/23 04:23:09;;;;;;;;;;;17.90;67.20;;;;;;5395193;26;1837;-73
2024/04/23 04:25:34;;;;;;;;;;;18.00;67.10;;;;;;5396253;26;1436;-72
2024/04/23 04:28:00;;;;;;;;;;;18.00;67.00;;;;;;5363734;26;1818;-73
2024/04/23 04:30:25;;;;;;;;;;;18.00;66.90;;;;;;5391788;26;1882;-72
2024/04/23 04:32:51;;;;;;;;;;;18.10;66.90;;;;;;5392457;26;1419;-72
2024/04/23 04:35:16;;;;;;;;;;;18.10;66.80;;;;;;5365227;26;2127;-72
2024/04/23 04:37:42;;;;;;;;;;;18.10;66.70;;;;;;5362150;26;2082;-72
2024/04/23 04:40:07;;;;;;;;;;;18.10;66.60;;;;;;5421820;26;1622;-72
2024/04/23 04:42:33;;;;;;;;;;;18.10;66.50;;;;;;5395704;26;1805;-73
2024/04/23 04:44:58;;;;;;;;;;;18.20;66.50;;;;;;5393940;26;1774;-72
2024/04/23 04:47:23;;;;;;;;;;;18.20;66.40;;;;;;5379054;26;1821;-72
2024/04/23 04:49:49;;;;;;;;;;;18.20;66.40;;;;;;5393255;26;1600;-72
2024/04/23 04:52:14;;;;;;;;;;;18.20;66.30;;;;;;5395543;26;1796;-72
2024/04/23 04:54:40;;;;;;;;;;;18.20;66.20;;;;;;5394626;26;1742;-73
2024/04/23 04:57:05;;;;;;;;;;;18.20;66.20;;;;;;5396450;26;1860;-71
2024/04/23 04:59:31;;;;;;;;;;;18.20;66.10;;;;;;5365120;26;2044;-72
2024/04/23 05:01:57;;;;;;;;;;;18.30;66.80;;;;;;5420790;26;1487;-72
2024/04/23 05:04:22;;;;;;;;;;;18.30;66.10;;;;;;5394574;26;2513;-73
2024/04/23 05:06:47;;;;;;;;;;;18.30;66.10;;;;;;5392549;26;2363;-70
2024/04/23 05:09:13;;;;;;;;;;;18.30;66.00;;;;;;5391757;26;1752;-70
2024/04/23 05:11:39;;;;;;;;;;;18.30;66.00;;;;;;5392328;26;1946;-74
2024/04/23 05:14:05;;;;;;;;;;;18.30;66.00;;;;;;5392304;26;1847;-71
2024/04/23 05:16:31;;;;;;;;;;;18.30;65.90;;;;;;5387323;26;1938;-70
2024/04/23 05:19:01;;;;;;;;;;;18.30;65.90;;;;;;5363631;26;1985;-71
2024/04/23 05:21:27;;;;;;;;;;;18.40;65.90;;;;;;5388219;26;1742;-71
2024/04/23 05:23:52;;;;;;;;;;;18.30;65.80;;;;;;5366100;26;1797;-71
2024/04/23 05:26:18;;;;;;;;;;;18.30;65.80;;;;;;5361134;26;1837;-71
2024/04/23 05:28:43;;;;;;;;;;;18.30;65.80;;;;;;5377381;26;1923;-71
2024/04/23 05:33:53;;;;;;;;;;;18.30;65.80;;;;;;5392221;26;1866;-71
2024/04/23 05:36:22;;;;;;;;;;;18.30;65.80;;;;;;5337620;26;1784;-71
2024/04/23 05:38:48;;;;;;;;;;;18.40;65.80;;;;;;5368400;26;1571;-71
2024/04/23 05:41:13;;;;;;;;;;;18.40;65.80;;;;;;5365058;26;1652;-71
2024/04/23 05:43:39;;;;;;;;;;;18.40;65.80;;;;;;5395497;26;1774;-71
2024/04/23 05:46:04;;;;;;;;;;;18.30;65.80;;;;;;5390197;26;1872;-70
2024/04/23 05:48:48;;;;;;;;;;;18.30;65.80;;;;;;5379099;26;1433;-71
2024/04/23 05:51:32;;;;;;;;;;;18.30;65.80;;;;;;5396362;26;1680;-71
2024/04/23 05:54:16;;;;;;;;;;;18.30;65.80;;;;;;5396821;26;1759;-72
2024/04/23 05:56:42;;;;;;;;;;;18.30;65.90;;;;;;5389261;26;1691;-73
2024/04/23 05:59:07;;;;;;;;;;;18.30;65.90;;;;;;5418047;26;1821;-72
2024/04/23 06:01:33;;;;;;;;;;;18.30;65.90;;;;;;5375519;26;1493;-71
2024/04/23 06:03:58;;;;;;;;;;;18.30;66.00;;;;;;5399014;26;1750;-71
2024/04/23 06:06:24;;;;;;;;;;;18.30;65.30;;;;;;5390034;26;1990;-71
2024/04/23 06:08:49;;;;;;;;;;;18.30;62.00;;;;;;5390698;26;1920;-74
2024/04/23 06:11:16;;;;;;;;;;;18.30;61.70;;;;;;5385994;26;2116;-73
2024/04/23 06:13:45;;;;;;;;;;;18.20;61.70;;;;;;5397172;26;1891;-73
2024/04/23 06:16:10;;;;;;;;;;;18.20;61.90;;;;;;5388412;26;1758;-73
2024/04/23 06:18:36;;;;;;;;;;;18.20;62.10;;;;;;5376945;26;2068;-73
2024/04/23 06:21:01;;;;;;;;;;;18.20;62.00;;;;;;5393281;26;1810;-72
2024/04/23 06:23:27;;;;;;;;;;;18.20;62.20;;;;;;5364059;26;1796;-71
2024/04/23 06:25:55;;;;;;;;;;;18.20;62.50;;;;;;5393873;26;1845;-72
2024/04/23 06:28:20;;;;;;;;;;;18.20;62.80;;;;;;5389906;26;1761;-73
2024/04/23 06:30:46;;;;;;;;;;;18.20;63.10;;;;;;5417782;26;1791;-72
2024/04/23 06:33:11;;;;;;;;;;;18.20;63.30;;;;;;5362725;26;1715;-72
2024/04/23 06:35:37;;;;;;;;;;;18.20;63.50;;;;;;5394095;26;1482;-72
2024/04/23 06:38:02;;;;;;;;;;;18.20;63.70;;;;;;5423144;26;1879;-72
2024/04/23 06:40:28;;;;;;;;;;;18.20;63.90;;;;;;5394494;26;1775;-71
2024/04/23 06:42:53;;;;;;;;;;;18.20;64.00;;;;;;5365953;26;1688;-71
2024/04/23 06:45:18;;;;;;;;;;;18.20;64.20;;;;;;5377408;26;1418;-72
2024/04/23 06:47:45;;;;;;;;;;;18.20;64.30;;;;;;5423157;26;1878;-72
2024/04/23 06:50:10;;;;;;;;;;;18.20;64.30;;;;;;5397838;26;1921;-73
2024/04/23 06:52:36;;;;;;;;;;;18.20;64.50;;;;;;5394132;26;1463;-72
2024/04/23 06:55:02;;;;;;;;;;;18.20;64.50;;;;;;5395477;26;1630;-71
2024/04/23 06:57:27;;;;;;;;;;;18.20;64.60;;;;;;5397749;26;1822;-72
2024/04/23 06:59:53;;;;;;;;;;;18.20;64.70;;;;;;5389573;26;1829;-72
2024/04/23 07:02:18;;;;;;;;;;;18.20;64.70;;;;;;5395885;26;1572;-71
2024/04/23 07:04:44;;;;;;;;;;;18.20;64.80;;;;;;5390457;26;1903;-71
2024/04/23 07:07:09;;;;;;;;;;;18.20;64.80;;;;;;5395254;26;2064;-72
2024/04/23 07:09:35;;;;;;;;;;;18.20;64.90;;;;;;5392368;26;1395;-71
2024/04/23 07:12:00;;;;;;;;;;;18.20;64.90;;;;;;5394522;26;1943;-71
2024/04/23 07:14:26;;;;;;;;;;;18.20;64.90;;;;;;5419675;26;1485;-71
2024/04/23 07:16:51;;;;;;;;;;;18.20;65.00;;;;;;5394930;26;1835;-71
2024/04/23 07:19:17;;;;;;;;;;;18.20;65.00;;;;;;5394895;26;1674;-72
2024/04/23 07:21:42;;;;;;;;;;;18.20;65.10;;;;;;5390995;26;1412;-72
2024/04/23 07:24:07;;;;;;;;;;;18.20;65.10;;;;;;5397024;26;1889;-72
2024/04/23 07:26:33;;;;;;;;;;;18.20;65.10;;;;;;5384652;26;1826;-71
2024/04/23 07:28:58;;;;;;;;;;;18.20;65.20;;;;;;5377099;26;1786;-72
2024/04/23 07:31:24;;;;;;;;;;;18.20;65.20;;;;;;5392528;26;2002;-72
2024/04/23 07:33:50;;;;;;;;;;;18.20;65.20;;;;;;5419401;26;1926;-72
2024/04/23 07:36:15;;;;;;;;;;;18.20;65.30;;;;;;5350564;26;2272;-72
2024/04/23 07:38:40;;;;;;;;;;;18.20;65.30;;;;;;5363532;26;1890;-72
2024/04/23 07:41:06;;;;;;;;;;;18.20;65.40;;;;;;5397549;26;1975;-73
2024/04/23 07:43:31;;;;;;;;;;;18.20;65.40;;;;;;5397855;26;1777;-73
2024/04/23 07:45:57;;;;;;;;;;;18.20;65.40;;;;;;5396035;26;1830;-73
2024/04/23 07:48:22;;;;;;;;;;;18.20;65.40;;;;;;5366068;26;1683;-73
2024/04/23 07:50:50;;;;;;;;;;;18.20;65.50;;;;;;5390742;26;1762;-73
2024/04/23 07:53:15;;;;;;;;;;;18.20;65.50;;;;;;5400766;26;2055;-73
2024/04/23 07:55:40;;;;;;;;;;;18.10;65.40;;;;;;5368283;26;1902;-73
2024/04/23 07:58:06;;;;;;;;;;;18.20;65.50;;;;;;5392721;26;1865;-73
2024/04/23 08:00:31;;;;;;;;;;;18.20;65.50;;;;;;5401755;26;1526;-72
2024/04/23 08:02:57;;;;;;;;;;;18.20;65.60;;;;;;5365378;26;1363;-72
2024/04/23 08:05:23;;;;;;;;;;;18.20;65.60;;;;;;5392654;26;1740;-72
2024/04/23 08:07:49;;;;;;;;;;;18.20;65.60;;;;;;5398921;26;1900;-73
2024/04/23 08:10:17;;;;;;;;;;;18.20;65.60;;;;;;5425134;26;1690;-73
2024/04/23 08:12:46;;;;;;;;;;;18.20;65.60;;;;;;5338732;26;1835;-73
2024/04/23 08:15:12;;;;;;;;;;;18.20;65.60;;;;;;5363689;26;1759;-73
2024/04/23 08:17:37;;;;;;;;;;;18.20;65.60;;;;;;5368326;26;1990;-72
2024/04/23 08:20:03;;;;;;;;;;;18.20;65.50;;;;;;5398080;26;1542;-72
2024/04/23 08:22:29;;;;;;;;;;;18.20;65.50;;;;;;5395084;26;1158;-73
2024/04/23 08:24:54;;;;;;;;;;;18.20;65.50;;;;;;5399150;26;1866;-72
2024/04/23 08:27:19;;;;;;;;;;;18.20;65.50;;;;;;5372947;26;2012;-72
2024/04/23 08:29:45;;;;;;;;;;;18.20;65.50;;;;;;5391295;26;1781;-73
2024/04/23 08:32:10;;;;;;;;;;;18.20;65.50;;;;;;5421683;26;1871;-73
2024/04/23 08:34:36;;;;;;;;;;;18.20;65.40;;;;;;5379408;26;1789;-73
2024/04/23 08:37:05;;;;;;;;;;;18.20;65.40;;;;;;5420431;26;1772;-72
2024/04/23 08:39:30;;;;;;;;;;;18.20;65.40;;;;;;5419152;26;1969;-73
2024/04/23 08:41:56;;;;;;;;;;;18.20;65.40;;;;;;5393556;26;1768;-73
2024/04/23 08:44:21;;;;;;;;;;;18.20;65.40;;;;;;5369676;26;1776;-72
2024/04/23 08:46:47;;;;;;;;;;;18.30;65.40;;;;;;5363517;26;1829;-73
2024/04/23 08:49:13;;;;;;;;;;;18.30;65.40;;;;;;5395386;26;1898;-73
2024/04/23 08:51:38;;;;;;;;;;;18.30;65.50;;;;;;5363187;26;1799;-73
2024/04/23 08:54:04;;;;;;;;;;;18.30;65.50;;;;;;5379383;26;1824;-73
2024/04/23 08:56:30;;;;;;;;;;;18.30;65.50;;;;;;5365675;26;1462;-73
2024/04/23 08:58:56;;;;;;;;;;;18.20;65.50;;;;;;5393206;26;1761;-73
2024/04/23 09:01:27;;;;;;;;;;;18.20;65.50;;;;;;5416205;26;1792;-72
2024/04/23 09:03:55;;;;;;;;;;;18.20;65.50;;;;;;5377608;26;2417;-72
2024/04/23 09:06:20;;;;;;;;;;;18.20;65.50;;;;;;5394774;26;1883;-73
2024/04/23 09:08:46;;;;;;;;;;;18.20;65.50;;;;;;5365771;26;1952;-72
2024/04/23 09:11:13;;;;;;;;;;;18.30;65.50;;;;;;5392103;26;1995;-70
2024/04/23 09:13:38;;;;;;;;;;;18.30;65.50;;;;;;5379235;26;1793;-73
2024/04/23 09:16:04;;;;;;;;;;;18.30;65.50;;;;;;5369052;26;1929;-72
2024/04/23 09:18:31;;;;;;;;;;;18.20;65.50;;;;;;5393098;26;1689;-71
2024/04/23 09:20:56;;;;;;;;;;;18.30;65.50;;;;;;5378184;26;1928;-73
2024/04/23 09:23:25;;;;;;;;;;;18.30;65.50;;;;;;5366753;26;1743;-72
2024/04/23 09:25:50;;;;;;;;;;;18.30;65.50;;;;;;5357116;26;2098;-72
2024/04/23 09:28:20;;;;;;;;;;;18.30;65.40;;;;;;5393102;26;1859;-72
2024/04/23 09:30:46;;;;;;;;;;;18.30;65.40;;;;;;5415682;26;1878;-72
2024/04/23 09:33:12;;;;;;;;;;;18.30;65.40;;;;;;5396728;26;1999;-71
2024/04/23 09:35:38;;;;;;;;;;;18.30;65.40;;;;;;5366193;26;1528;-72
2024/04/23 09:38:04;;;;;;;;;;;18.30;65.40;;;;;;5390136;26;1752;-72
2024/04/23 09:40:29;;;;;;;;;;;18.30;65.30;;;;;;5419946;26;1761;-72
2024/04/23 09:42:55;;;;;;;;;;;18.30;65.30;;;;;;5417458;26;2225;-72
2024/04/23 09:45:27;;;;;;;;;;;18.40;65.40;;;;;;5337648;26;1397;-72
2024/04/23 09:47:52;;;;;;;;;;;18.30;65.30;;;;;;5367252;26;1830;-72
2024/04/23 09:50:19;;;;;;;;;;;18.40;65.30;;;;;;5338861;26;1379;-73
2024/04/23 09:52:45;;;;;;;;;;;18.40;65.30;;;;;;5390959;26;1659;-72
2024/04/23 09:55:10;;;;;;;;;;;18.40;65.30;;;;;;5376813;26;1705;-72
2024/04/23 09:57:36;;;;;;;;;;;18.40;65.30;;;;;;5361637;26;1733;-73
2024/04/23 10:00:03;;;;;;;;;;;18.40;65.30;;;;;;5398381;26;1522;-73
2024/04/23 10:02:28;;;;;;;;;;;18.40;65.30;;;;;;5366518;26;2015;-73
2024/04/23 10:05:13;;;;;;;;;;;18.40;65.30;;;;;;5416544;26;1640;-72
2024/04/23 10:07:58;;;;;;;;;;;18.40;65.30;;;;;;5368792;26;1852;-72
2024/04/23 10:10:27;;;;;;;;;;;18.40;65.20;;;;;;5386449;26;1726;-71
2024/04/23 10:12:53;;;;;;;;;;;18.40;65.20;;;;;;5390885;26;1453;-72
2024/04/23 10:15:20;;;;;;;;;;;18.40;65.20;;;;;;5371693;26;1335;-72
2024/04/23 10:17:54;;;;;;;;;;;18.40;65.20;;;;;;5341873;26;1718;-72
2024/04/23 10:20:20;;;;;;;;;;;18.40;65.20;;;;;;5365512;26;1897;-72
2024/04/23 10:22:46;;;;;;;;;;;18.40;65.20;;;;;;5420125;26;1442;-72
2024/04/23 10:25:12;;;;;;;;;;;18.40;65.30;;;;;;5395706;26;1748;-72
2024/04/23 10:27:37;;;;;;;;;;;18.40;65.30;;;;;;5363318;26;1829;-72
2024/04/23 10:30:03;;;;;;;;;;;18.40;65.30;;;;;;5340575;26;1874;-73
2024/04/23 10:32:29;;;;;;;;;;;18.40;65.30;;;;;;5390095;26;1990;-73
2024/04/23 10:34:56;;;;;;;;;;;18.30;65.30;;;;;;5419272;26;1732;-72
2024/04/23 10:37:21;;;;;;;;;;;18.30;65.30;;;;;;5364040;26;2177;-72
2024/04/23 10:39:47;;;;;;;;;;;18.40;65.40;;;;;;5418210;26;1852;-74
2024/04/23 10:42:14;;;;;;;;;;;18.30;65.40;;;;;;5378751;26;2011;-72
2024/04/23 10:44:39;;;;;;;;;;;18.30;65.40;;;;;;5416035;26;1655;-72
2024/04/23 10:47:05;;;;;;;;;;;18.30;65.50;;;;;;5365149;26;1896;-75
2024/04/23 10:49:35;;;;;;;;;;;18.30;65.50;;;;;;5391475;26;1934;-72
2024/04/23 10:52:01;;;;;;;;;;;18.30;65.50;;;;;;5363141;26;1638;-73
2024/04/23 10:54:27;;;;;;;;;;;18.30;65.50;;;;;;5420149;26;1550;-71
2024/04/23 10:57:00;;;;;;;;;;;18.30;65.50;;;;;;5375676;26;1357;-72
2024/04/23 10:59:31;;;;;;;;;;;18.30;65.50;;;;;;5424779;26;1522;-71
2024/04/23 11:01:57;;;;;;;;;;;18.30;65.50;;;;;;5423324;26;1480;-72
2024/04/23 11:04:32;;;;;;;;;;;18.30;65.50;;;;;;5400179;26;1567;-74
2024/04/23 11:07:04;;;;;;;;;;;18.30;65.40;;;;;;5400853;26;1842;-72
2024/04/23 11:09:42;;;;;;;;;;;18.40;65.50;;;;;;5399886;26;1227;-73
2024/04/23 11:12:21;;;;;;;;;;;18.30;65.40;;;;;;5402143;26;1513;-71
2024/04/23 11:14:46;;;;;;;;;;;18.40;65.40;;;;;;5424750;26;1462;-71
2024/04/23 11:17:12;;;;;;;;;;;18.40;65.40;;;;;;5372116;26;1259;-72
2024/04/23 11:19:37;;;;;;;;;;;18.40;65.40;;;;;;5430067;26;1397;-71
2024/04/23 11:22:15;;;;;;;;;;;18.40;65.30;;;;;;5402120;26;1736;-72
2024/04/23 11:24:42;;;;;;;;;;;18.40;65.30;;;;;;5395684;26;1970;-72
2024/04/23 11:27:07;;;;;;;;;;;18.40;65.30;;;;;;5428449;26;2008;-72
2024/04/23 11:29:32;;;;;;;;;;;18.40;65.20;;;;;;5425523;26;1421;-72
2024/04/23 11:31:58;;;;;;;;;;;18.40;65.20;;;;;;5397799;26;2151;-71
2024/04/23 11:34:24;;;;;;;;;;;18.40;65.20;;;;;;5401946;26;1634;-72
2024/04/23 11:36:49;;;;;;;;;;;18.40;65.20;;;;;;5425576;26;1409;-71
2024/04/23 11:39:24;;;;;;;;;;;18.40;65.20;;;;;;5425570;26;1698;-72
2024/04/23 11:41:50;;;;;;;;;;;18.50;65.20;;;;;;5401885;26;1883;-71
2024/04/23 11:44:17;;;;;;;;;;;18.40;65.20;;;;;;5430324;26;1642;-72
2024/04/23 11:46:43;;;;;;;;;;;18.40;65.20;;;;;;5398693;26;1966;-72
2024/04/23 11:49:08;;;;;;;;;;;18.40;65.20;;;;;;5425830;26;1977;-72
2024/04/23 11:51:34;;;;;;;;;;;18.40;65.20;;;;;;5404322;26;1522;-71
2024/04/23 11:53:59;;;;;;;;;;;18.40;65.20;;;;;;5397022;26;1831;-72
2024/04/23 11:56:25;;;;;;;;;;;18.40;65.20;;;;;;5425786;26;1864;-71
2024/04/23 11:58:51;;;;;;;;;;;18.40;65.20;;;;;;5373600;26;1458;-71
2024/04/23 12:01:16;;;;;;;;;;;18.40;65.20;;;;;;5369268;26;2512;-72
2024/04/23 12:03:41;;;;;;;;;;;18.50;65.30;;;;;;5368668;26;1802;-73
2024/04/23 12:06:07;;;;;;;;;;;18.40;65.20;;;;;;5365519;26;1892;-72
2024/04/23 12:08:32;;;;;;;;;;;18.40;65.20;;;;;;5343375;26;1821;-72
2024/04/23 12:10:58;;;;;;;;;;;18.40;65.20;;;;;;5364244;26;1863;-73
2024/04/23 12:13:24;;;;;;;;;;;18.40;65.20;;;;;;5368242;26;1752;-72
2024/04/23 12:15:49;;;;;;;;;;;18.40;65.20;;;;;;5398198;26;1864;-73
2024/04/23 12:18:15;;;;;;;;;;;18.40;65.20;;;;;;5431070;26;1464;-71
2024/04/23 12:20:40;;;;;;;;;;;18.40;65.30;;;;;;5426769;26;1440;-73
2024/04/23 12:23:09;;;;;;;;;;;18.40;65.30;;;;;;5361527;26;1697;-73
2024/04/23 12:25:35;;;;;;;;;;;18.40;65.30;;;;;;5368880;26;1407;-71
2024/04/23 12:28:00;;;;;;;;;;;18.40;65.30;;;;;;5422326;26;1822;-73
2024/04/23 12:30:26;;;;;;;;;;;18.40;65.30;;;;;;5400683;26;1869;-74
2024/04/23 12:32:53;;;;;;;;;;;18.40;65.40;;;;;;5359917;26;1948;-73
2024/04/23 12:35:20;;;;;;;;;;;18.40;65.40;;;;;;5419745;26;1765;-73
2024/04/23 12:37:45;;;;;;;;;;;18.40;65.40;;;;;;5392867;26;1184;-71
2024/04/23 12:40:11;;;;;;;;;;;18.40;65.50;;;;;;5393438;26;1896;-72
2024/04/23 12:42:37;;;;;;;;;;;18.40;65.50;;;;;;5425671;26;1900;-73
2024/04/23 12:45:02;;;;;;;;;;;18.40;65.50;;;;;;5390797;26;1663;-74
2024/04/23 12:47:28;;;;;;;;;;;18.40;65.50;;;;;;5389240;26;1867;-71
2024/04/23 12:49:53;;;;;;;;;;;18.40;65.60;;;;;;5399587;26;1513;-73
2024/04/23 12:52:19;;;;;;;;;;;18.30;65.50;;;;;;5365346;26;1786;-72
2024/04/23 12:54:44;;;;;;;;;;;18.40;65.60;;;;;;5391427;26;1811;-73
2024/04/23 12:57:11;;;;;;;;;;;18.30;65.60;;;;;;5394739;26;1805;-73
2024/04/23 12:59:37;;;;;;;;;;;18.30;65.60;;;;;;5379210;26;1842;-73
2024/04/23 13:02:10;;;;;;;;;;;18.30;65.60;;;;;;5422033;26;1832;-73
2024/04/23 13:04:35;;;;;;;;;;;18.30;65.60;;;;;;5418874;26;1377;-73
2024/04/23 13:07:01;;;;;;;;;;;18.30;65.70;;;;;;5380153;26;1870;-73
2024/04/23 13:09:26;;;;;;;;;;;18.30;66.50;;;;;;5360486;26;1762;-72
2024/04/23 13:11:51;;;;;;;;;;;18.30;65.70;;;;;;5399523;26;1517;-74
2024/04/23 13:14:17;;;;;;;;;;;18.30;65.80;;;;;;5419003;26;1962;-74
2024/04/23 13:16:42;;;;;;;;;;;18.30;65.80;;;;;;5391997;26;1755;-73
2024/04/23 13:19:08;;;;;;;;;;;18.30;65.80;;;;;;5397253;26;1752;-73
2024/04/23 13:21:33;;;;;;;;;;;18.30;65.90;;;;;;5397960;26;1715;-73
2024/04/23 13:23:59;;;;;;;;;;;18.30;65.90;;;;;;5396341;26;2020;-73
2024/04/23 13:26:24;;;;;;;;;;;18.30;65.90;;;;;;5342471;26;1830;-73
2024/04/23 13:28:50;;;;;;;;;;;18.20;65.90;;;;;;5366529;26;1961;-73
2024/04/23 13:31:15;;;;;;;;;;;18.30;66.00;;;;;;5392886;26;1863;-73
2024/04/23 13:33:42;;;;;;;;;;;18.20;66.00;;;;;;5396870;26;1384;-73
2024/04/23 13:36:09;;;;;;;;;;;18.20;66.00;;;;;;5364671;26;1662;-74
2024/04/23 13:38:34;;;;;;;;;;;18.20;66.00;;;;;;5396883;26;2147;-73
2024/04/23 13:41:00;;;;;;;;;;;18.20;66.00;;;;;;5366705;26;1609;-73
2024/04/23 13:43:25;;;;;;;;;;;18.20;66.00;;;;;;5368399;26;1389;-73
2024/04/23 13:45:54;;;;;;;;;;;18.30;66.10;;;;;;5365692;26;1858;-73
2024/04/23 13:48:19;;;;;;;;;;;18.20;66.10;;;;;;5402999;26;1516;-73
2024/04/23 13:50:45;;;;;;;;;;;18.20;66.10;;;;;;5394246;26;1364;-73
2024/04/23 13:53:10;;;;;;;;;;;18.20;66.10;;;;;;5396712;26;1375;-73
2024/04/23 13:55:37;;;;;;;;;;;18.20;66.20;;;;;;5387989;26;1358;-74
2024/04/23 13:58:03;;;;;;;;;;;18.20;66.20;;;;;;5415861;26;1369;-74
2024/04/23 14:00:28;;;;;;;;;;;18.20;66.20;;;;;;5399858;26;1796;-73
2024/04/23 14:02:54;;;;;;;;;;;18.20;66.20;;;;;;5389140;26;1656;-73
2024/04/23 14:05:21;;;;;;;;;;;18.20;66.30;;;;;;5388870;26;1461;-73
2024/04/23 14:07:46;;;;;;;;;;;18.20;66.30;;;;;;5396729;26;1869;-74
2024/04/23 14:10:12;;;;;;;;;;;18.20;66.30;;;;;;5396125;26;1609;-73
2024/04/23 14:12:37;;;;;;;;;;;18.20;66.30;;;;;;5393455;26;1768;-73
2024/04/23 14:15:04;;;;;;;;;;;18.20;66.40;;;;;;5391983;26;1948;-73
2024/04/23 14:17:31;;;;;;;;;;;18.20;66.40;;;;;;5388288;26;1799;-73
2024/04/23 14:19:56;;;;;;;;;;;18.20;66.40;;;;;;5379465;26;1766;-72
2024/04/23 14:22:22;;;;;;;;;;;18.10;66.30;;;;;;5364693;26;1780;-71
2024/04/23 14:24:47;;;;;;;;;;;18.10;66.40;;;;;;5399115;26;1530;-71
2024/04/23 14:27:13;;;;;;;;;;;18.10;66.40;;;;;;5400682;26;1928;-71
2024/04/23 14:29:40;;;;;;;;;;;18.10;66.40;;;;;;5394258;26;1860;-71